createdAt,value
2022-07-28T00:00:04.699Z,92.80
2022-07-28T00:02:34.975Z,93.00
2022-07-28T00:05:01.705Z,92.90
2022-07-28T00:07:28.508Z,93.20
2022-07-28T00:10:00.173Z,93.30
2022-07-28T00:12:27.367Z,93.40
2022-07-28T00:14:53.978Z,93.40
2022-07-28T00:17:20.886Z,93.70
2022-07-28T00:19:47.599Z,93.70
2022-07-28T00:22:14.306Z,93.80
2022-07-28T00:24:41.304Z,93.90
2022-07-28T00:27:08.292Z,93.90
2022-07-28T00:29:42.571Z,93.90
2022-07-28T00:32:18.556Z,94.00
2022-07-28T00:34:45.515Z,94.00
2022-07-28T00:37:14.586Z,94.20
2022-07-28T00:39:42.376Z,94.30
2022-07-28T00:42:09.224Z,94.20
2022-07-28T00:44:36.120Z,94.40
2022-07-28T00:47:02.841Z,94.50
2022-07-28T00:49:29.740Z,94.60
2022-07-28T00:51:57.077Z,95.00
2022-07-28T00:54:23.858Z,94.90
2022-07-28T00:56:50.944Z,94.90
2022-07-28T00:59:17.615Z,94.80
2022-07-28T01:01:44.456Z,95.00
2022-07-28T01:04:11.519Z,95.00
2022-07-28T01:06:54.958Z,95.20
2022-07-28T01:09:47.172Z,95.30
2022-07-28T01:12:58.459Z,95.50
2022-07-28T01:15:39.357Z,95.50
2022-07-28T01:18:18.782Z,95.50
2022-07-28T01:20:50.001Z,95.60
2022-07-28T01:23:32.068Z,95.70
2022-07-28T01:26:23.439Z,95.90
2022-07-28T01:29:05.992Z,95.90
2022-07-28T01:31:38.139Z,95.90
2022-07-28T01:34:13.090Z,96.00
2022-07-28T01:36:45.667Z,96.00
2022-07-28T01:39:15.352Z,96.10
2022-07-28T01:41:44.178Z,96.20
2022-07-28T01:44:16.724Z,96.20
2022-07-28T01:46:45.519Z,96.30
2022-07-28T01:49:13.724Z,96.30
2022-07-28T01:51:41.519Z,96.30
2022-07-28T01:54:11.142Z,96.30
2022-07-28T01:56:40.248Z,96.20
2022-07-28T01:59:09.835Z,96.40
2022-07-28T02:01:41.535Z,96.20
2022-07-28T02:04:10.402Z,96.20
2022-07-28T02:06:39.203Z,96.00
2022-07-28T02:09:07.725Z,95.90
2022-07-28T02:11:42.270Z,96.00
2022-07-28T02:14:36.432Z,95.90
2022-07-28T02:17:10.957Z,96.30
2022-07-28T02:19:39.301Z,96.10
2022-07-28T02:22:07.911Z,95.80
2022-07-28T02:24:35.559Z,95.80
2022-07-28T02:27:46.955Z,95.90
2022-07-28T02:30:46.987Z,95.70
2022-07-28T02:33:33.079Z,95.80
2022-07-28T02:36:16.267Z,95.90
2022-07-28T02:38:46.646Z,95.90
2022-07-28T02:41:36.472Z,96.20
2022-07-28T02:44:11.868Z,96.00
2022-07-28T02:46:46.711Z,96.10
2022-07-28T02:49:31.020Z,96.20
2022-07-28T02:51:59.761Z,96.10
2022-07-28T02:54:28.803Z,96.20
2022-07-28T02:56:58.443Z,96.20
2022-07-28T02:59:27.498Z,96.30
2022-07-28T03:01:55.039Z,96.20
2022-07-28T03:04:42.670Z,96.40
2022-07-28T03:07:10.987Z,96.60
2022-07-28T03:09:43.703Z,96.60
2022-07-28T03:12:10.876Z,96.40
2022-07-28T03:14:37.939Z,96.40
2022-07-28T03:17:05.353Z,96.40
2022-07-28T03:19:32.413Z,96.50
2022-07-28T03:21:59.175Z,96.60
2022-07-28T03:24:40.255Z,96.60
2022-07-28T03:27:30.983Z,96.40
2022-07-28T03:30:04.914Z,96.60
2022-07-28T03:32:34.179Z,96.80
2022-07-28T03:35:01.421Z,96.60
2022-07-28T03:37:35.426Z,96.20
2022-07-28T03:40:03.564Z,96.20
2022-07-28T03:42:31.248Z,96.10
2022-07-28T03:44:57.981Z,96.00
2022-07-28T03:47:25.025Z,95.80
2022-07-28T03:49:51.818Z,95.90
2022-07-28T03:52:19.324Z,96.20
2022-07-28T03:54:46.275Z,96.10
2022-07-28T03:57:13.976Z,96.10
2022-07-28T03:59:40.673Z,96.10
2022-07-28T04:02:07.436Z,96.30
2022-07-28T04:04:34.081Z,96.40
2022-07-28T04:07:00.702Z,96.20
2022-07-28T04:09:27.350Z,96.20
2022-07-28T04:11:53.969Z,96.30
2022-07-28T04:14:20.862Z,96.40
2022-07-28T04:16:47.902Z,96.60
2022-07-28T04:19:14.686Z,96.40
2022-07-28T04:21:41.523Z,96.40
2022-07-28T04:24:09.968Z,96.70
2022-07-28T04:26:36.929Z,96.50
2022-07-28T04:29:03.659Z,96.20
2022-07-28T04:31:30.788Z,96.30
2022-07-28T04:33:57.503Z,96.20
2022-07-28T04:36:24.179Z,96.00
2022-07-28T04:38:50.881Z,95.60
2022-07-28T04:41:17.602Z,95.70
2022-07-28T04:43:45.369Z,95.60
2022-07-28T04:46:14.987Z,95.50
2022-07-28T04:48:42.072Z,95.60
2022-07-28T04:51:08.852Z,95.60
2022-07-28T04:53:35.707Z,95.50
2022-07-28T04:56:02.916Z,95.40
2022-07-28T04:58:30.971Z,95.70
2022-07-28T05:00:58.026Z,95.50
2022-07-28T05:03:24.771Z,95.20
2022-07-28T05:05:53.883Z,95.00
2022-07-28T05:08:22.569Z,94.80
2022-07-28T05:10:53.106Z,94.80
2022-07-28T05:13:19.734Z,94.80
2022-07-28T05:15:46.367Z,95.00
2022-07-28T05:18:13.023Z,94.60
2022-07-28T05:20:39.688Z,94.60
2022-07-28T05:23:06.453Z,94.30
2022-07-28T05:25:33.111Z,94.60
2022-07-28T05:27:59.785Z,94.00
2022-07-28T05:30:26.642Z,94.20
2022-07-28T05:32:54.048Z,94.30
2022-07-28T05:35:20.861Z,93.70
2022-07-28T05:37:47.554Z,94.10
2022-07-28T05:40:15.899Z,94.80
2022-07-28T05:42:44.102Z,94.50
2022-07-28T05:45:16.453Z,94.50
2022-07-28T05:47:46.594Z,94.60
2022-07-28T05:50:15.166Z,94.10
2022-07-28T05:52:41.909Z,94.10
2022-07-28T05:55:09.198Z,93.90
2022-07-28T05:57:37.331Z,93.40
2022-07-28T06:00:19.701Z,93.70
2022-07-28T06:02:49.205Z,93.90
2022-07-28T06:05:17.349Z,93.50
2022-07-28T06:07:44.811Z,93.10
2022-07-28T06:10:13.309Z,92.80
2022-07-28T06:12:43.420Z,93.10
2022-07-28T06:15:21.702Z,93.00
2022-07-28T06:17:52.313Z,92.70
2022-07-28T06:20:20.426Z,92.60
2022-07-28T06:22:52.968Z,92.70
2022-07-28T06:25:22.320Z,92.20
2022-07-28T06:27:54.569Z,92.30
2022-07-28T06:30:21.716Z,92.50
2022-07-28T06:32:49.346Z,92.30
2022-07-28T06:35:17.132Z,91.30
2022-07-28T06:37:44.872Z,91.50
2022-07-28T06:40:12.863Z,91.50
2022-07-28T06:42:40.255Z,91.00
2022-07-28T06:45:08.009Z,91.30
2022-07-28T06:47:34.909Z,91.50
2022-07-28T06:50:02.463Z,90.50
2022-07-28T06:52:29.176Z,91.00
2022-07-28T06:54:58.142Z,91.80
2022-07-28T06:57:27.997Z,91.30
2022-07-28T07:00:01.342Z,91.00
2022-07-28T07:02:28.293Z,90.90
2022-07-28T07:04:55.028Z,91.10
2022-07-28T07:07:22.823Z,90.60
2022-07-28T07:09:49.507Z,91.10
2022-07-28T07:12:16.168Z,91.00
2022-07-28T07:14:42.817Z,91.10
2022-07-28T07:17:09.449Z,91.00
2022-07-28T07:19:36.104Z,91.10
2022-07-28T07:22:02.746Z,90.50
2022-07-28T07:24:29.440Z,90.30
2022-07-28T07:26:56.262Z,90.50
2022-07-28T07:29:23.637Z,89.70
2022-07-28T07:31:52.946Z,90.00
2022-07-28T07:34:20.274Z,90.40
2022-07-28T07:36:46.983Z,90.30
2022-07-28T07:39:13.661Z,90.00
2022-07-28T07:41:40.372Z,90.10
2022-07-28T07:44:07.043Z,89.00
2022-07-28T07:46:33.722Z,89.40
2022-07-28T07:49:00.748Z,90.60
2022-07-28T07:51:27.529Z,90.00
2022-07-28T07:53:54.177Z,89.30
2022-07-28T07:56:20.832Z,89.70
2022-07-28T07:58:47.511Z,90.50
2022-07-28T08:01:14.453Z,91.10
2022-07-28T08:03:42.589Z,91.10
2022-07-28T08:06:09.266Z,91.30
2022-07-28T08:08:43.713Z,91.00
2022-07-28T08:11:13.079Z,91.10
2022-07-28T08:13:40.135Z,90.40
2022-07-28T08:16:07.136Z,90.50
2022-07-28T08:18:33.804Z,90.40
2022-07-28T08:21:00.427Z,90.60
2022-07-28T08:23:27.151Z,90.70
2022-07-28T08:25:54.355Z,90.60
2022-07-28T08:28:21.031Z,90.70
2022-07-28T08:30:48.124Z,90.70
2022-07-28T08:33:14.764Z,90.60
2022-07-28T08:35:41.501Z,90.30
2022-07-28T08:38:08.209Z,90.30
2022-07-28T08:40:38.044Z,90.40
2022-07-28T08:43:23.552Z,90.20
2022-07-28T08:45:57.745Z,90.50
2022-07-28T08:48:27.217Z,90.40
2022-07-28T08:50:55.883Z,90.50
2022-07-28T08:53:22.921Z,90.30
2022-07-28T08:55:50.547Z,90.40
2022-07-28T08:58:18.040Z,90.60
2022-07-28T09:00:46.025Z,89.70
2022-07-28T09:03:13.438Z,89.80
2022-07-28T09:05:43.453Z,90.10
2022-07-28T09:08:12.125Z,90.10
2022-07-28T09:10:38.820Z,88.90
2022-07-28T09:13:05.510Z,90.00
2022-07-28T09:15:32.884Z,90.10
2022-07-28T09:17:59.599Z,89.30
2022-07-28T09:20:27.305Z,90.00
2022-07-28T09:22:59.349Z,88.70
2022-07-28T09:25:27.047Z,88.90
2022-07-28T09:27:54.888Z,89.10
2022-07-28T09:30:32.547Z,89.30
2022-07-28T09:33:42.474Z,88.30
2022-07-28T09:36:00.545Z,89.70
2022-07-28T09:38:41.011Z,89.50
2022-07-28T09:41:07.854Z,89.00
2022-07-28T09:43:45.357Z,89.10
2022-07-28T09:46:21.265Z,88.00
2022-07-28T09:48:56.561Z,87.60
2022-07-28T09:51:31.115Z,87.30
2022-07-28T09:54:16.195Z,86.40
2022-07-28T09:56:45.253Z,86.10
2022-07-28T09:59:14.967Z,86.70
2022-07-28T10:02:01.797Z,85.50
2022-07-28T10:04:36.106Z,85.80
2022-07-28T10:07:09.652Z,86.80
2022-07-28T10:09:38.265Z,86.50
2022-07-28T10:12:25.012Z,86.60
2022-07-28T10:14:57.434Z,86.10
2022-07-28T10:17:33.181Z,87.40
2022-07-28T10:20:01.927Z,85.30
2022-07-28T10:22:33.061Z,87.10
2022-07-28T10:25:07.967Z,86.80
2022-07-28T10:27:35.090Z,86.40
2022-07-28T10:30:04.722Z,86.70
2022-07-28T10:32:38.558Z,87.10
2022-07-28T10:35:11.378Z,86.30
2022-07-28T10:37:45.417Z,86.10
2022-07-28T10:40:13.791Z,87.50
2022-07-28T10:42:40.911Z,87.30
2022-07-28T10:45:13.106Z,87.40
2022-07-28T10:47:39.820Z,87.00
2022-07-28T10:50:08.504Z,85.00
2022-07-28T10:52:54.843Z,84.90
2022-07-28T10:55:40.810Z,84.50
2022-07-28T10:58:24.717Z,85.40
2022-07-28T11:00:56.462Z,84.10
2022-07-28T11:03:46.943Z,82.00
2022-07-28T11:06:31.896Z,82.20
2022-07-28T11:09:17.927Z,81.30
2022-07-28T11:11:59.097Z,82.20
2022-07-28T11:14:25.928Z,81.80
2022-07-28T11:17:05.840Z,83.80
2022-07-28T11:19:55.891Z,83.50
2022-07-28T11:22:32.673Z,83.60
2022-07-28T11:25:21.083Z,84.00
2022-07-28T11:27:51.189Z,84.60
2022-07-28T11:30:33.510Z,84.00
2022-07-28T11:33:01.793Z,82.80
2022-07-28T11:35:31.006Z,82.90
2022-07-28T11:38:03.782Z,82.10
2022-07-28T11:40:38.977Z,82.00
2022-07-28T11:43:35.374Z,81.60
2022-07-28T11:46:10.209Z,82.60
2022-07-28T11:48:40.341Z,82.10
2022-07-28T11:51:07.183Z,83.10
2022-07-28T11:53:40.618Z,83.60
2022-07-28T11:56:09.452Z,84.00
2022-07-28T11:58:37.189Z,82.90
2022-07-28T12:01:20.731Z,83.00
2022-07-28T12:03:55.386Z,81.70
2022-07-28T12:06:29.015Z,82.10
2022-07-28T12:09:02.367Z,81.10
2022-07-28T12:11:33.919Z,81.10
2022-07-28T12:14:12.576Z,81.50
2022-07-28T12:16:41.971Z,82.20
2022-07-28T12:19:10.369Z,82.20
2022-07-28T12:21:47.710Z,82.50
2022-07-28T12:24:18.776Z,82.80
2022-07-28T12:26:49.670Z,81.20
2022-07-28T12:29:19.485Z,80.60
2022-07-28T12:31:55.586Z,80.00
2022-07-28T12:34:24.338Z,80.00
2022-07-28T12:36:57.861Z,81.50
2022-07-28T12:39:25.866Z,81.90
2022-07-28T12:42:09.648Z,82.10
2022-07-28T12:44:41.351Z,82.20
2022-07-28T12:47:13.173Z,82.80
2022-07-28T12:49:44.750Z,82.40
2022-07-28T12:52:22.708Z,83.20
2022-07-28T12:54:54.839Z,82.60
2022-07-28T12:57:50.916Z,82.40
2022-07-28T13:00:31.449Z,82.00
2022-07-28T13:03:00.547Z,81.50
2022-07-28T13:05:57.002Z,81.80
2022-07-28T13:08:25.417Z,81.50
2022-07-28T13:10:57.592Z,81.20
2022-07-28T13:13:25.334Z,80.70
2022-07-28T13:16:14.775Z,81.60
2022-07-28T13:18:42.872Z,81.90
2022-07-28T13:21:10.898Z,82.00
2022-07-28T13:23:38.123Z,80.30
2022-07-28T13:26:06.520Z,80.20
2022-07-28T13:28:33.458Z,80.10
2022-07-28T13:31:00.104Z,80.00
2022-07-28T13:33:26.876Z,80.30
2022-07-28T13:35:55.253Z,80.40
2022-07-28T13:38:21.896Z,79.90
2022-07-28T13:40:48.530Z,78.90
2022-07-28T13:43:15.157Z,79.60
2022-07-28T13:45:42.109Z,79.10
2022-07-28T13:48:09.350Z,76.40
2022-07-28T13:50:36.067Z,75.50
2022-07-28T13:53:02.805Z,78.70
2022-07-28T13:55:29.607Z,81.80
2022-07-28T13:57:56.693Z,82.40
2022-07-28T14:00:23.801Z,76.90
2022-07-28T14:02:51.383Z,77.90
2022-07-28T14:05:18.303Z,80.30
2022-07-28T14:07:48.333Z,81.20
2022-07-28T14:10:16.275Z,84.10
2022-07-28T14:12:45.179Z,80.60
2022-07-28T14:15:13.371Z,82.70
2022-07-28T14:17:43.769Z,81.10
2022-07-28T14:20:12.871Z,80.90
2022-07-28T14:22:39.637Z,80.20
2022-07-28T14:25:06.899Z,83.20
2022-07-28T14:27:34.249Z,81.60
2022-07-28T14:30:03.412Z,79.50
2022-07-28T14:32:31.289Z,80.40
2022-07-28T14:34:57.956Z,80.70
2022-07-28T14:37:25.096Z,80.10
2022-07-28T14:39:51.807Z,79.20
2022-07-28T14:42:18.608Z,79.10
2022-07-28T14:44:45.319Z,78.60
2022-07-28T14:47:12.027Z,78.20
2022-07-28T14:49:57.107Z,76.50
2022-07-28T14:52:26.352Z,75.10
2022-07-28T14:54:57.022Z,75.30
2022-07-28T14:57:24.422Z,75.50
2022-07-28T14:59:51.686Z,74.90
2022-07-28T15:02:18.365Z,75.20
2022-07-28T15:04:55.522Z,76.50
2022-07-28T15:07:22.118Z,76.20
2022-07-28T15:09:50.588Z,75.60
2022-07-28T15:12:17.555Z,75.60
2022-07-28T15:14:44.205Z,75.10
2022-07-28T15:17:10.896Z,75.10
2022-07-28T15:19:38.870Z,75.00
2022-07-28T15:22:06.341Z,72.60
2022-07-28T15:24:34.984Z,73.60
2022-07-28T15:27:02.583Z,74.80
2022-07-28T15:29:35.351Z,71.40
2022-07-28T15:32:04.243Z,73.10
2022-07-28T15:34:31.563Z,73.70
2022-07-28T15:36:58.215Z,74.50
2022-07-28T15:39:24.861Z,72.80
2022-07-28T15:41:57.531Z,73.00
2022-07-28T15:44:26.203Z,72.30
2022-07-28T15:46:53.220Z,71.60
2022-07-28T15:49:20.053Z,70.80
2022-07-28T15:51:46.815Z,70.40
2022-07-28T15:54:14.053Z,70.70
2022-07-28T15:56:42.001Z,72.00
2022-07-28T15:59:09.159Z,70.30
2022-07-28T16:01:36.007Z,68.30
2022-07-28T16:04:03.037Z,70.40
2022-07-28T16:06:48.628Z,70.00
2022-07-28T16:09:15.658Z,68.90
2022-07-28T16:11:42.362Z,69.70
2022-07-28T16:14:09.055Z,68.10
2022-07-28T16:16:35.860Z,69.80
2022-07-28T16:19:02.974Z,70.70
2022-07-28T16:21:29.689Z,69.00
2022-07-28T16:23:56.324Z,67.90
2022-07-28T16:26:22.967Z,69.00
2022-07-28T16:28:49.619Z,68.10
2022-07-28T16:31:16.814Z,69.00
2022-07-28T16:33:43.500Z,68.70
2022-07-28T16:36:10.216Z,68.20
2022-07-28T16:38:36.976Z,70.30
2022-07-28T16:41:03.796Z,69.50
2022-07-28T16:43:31.410Z,69.20
2022-07-28T16:45:58.186Z,68.60
2022-07-28T16:48:24.892Z,66.40
2022-07-28T16:50:51.582Z,67.30
2022-07-28T16:53:18.207Z,67.10
2022-07-28T16:55:46.975Z,69.90
2022-07-28T16:58:14.065Z,69.80
2022-07-28T17:00:40.862Z,69.70
2022-07-28T17:03:07.920Z,69.20
2022-07-28T17:05:37.894Z,69.50
2022-07-28T17:08:04.952Z,70.80
2022-07-28T17:10:31.732Z,72.40
2022-07-28T17:12:58.605Z,70.80
2022-07-28T17:15:25.513Z,70.00
2022-07-28T17:17:53.051Z,70.80
2022-07-28T17:20:20.845Z,71.00
2022-07-28T17:22:47.914Z,72.00
2022-07-28T17:28:01.544Z,71.50
2022-07-28T17:30:30.009Z,71.40
2022-07-28T17:32:58.964Z,71.90
2022-07-28T17:35:34.736Z,72.70
2022-07-28T17:38:03.989Z,72.30
2022-07-28T17:40:30.883Z,73.10
2022-07-28T17:42:57.580Z,73.00
2022-07-28T17:45:24.370Z,73.10
2022-07-28T17:47:51.444Z,72.90
2022-07-28T17:50:18.618Z,72.70
2022-07-28T17:52:45.797Z,72.50
2022-07-28T17:55:34.459Z,72.60
2022-07-28T17:58:20.039Z,73.90
2022-07-28T18:00:54.096Z,73.70
2022-07-28T18:03:22.731Z,74.20
2022-07-28T18:05:49.841Z,74.00
2022-07-28T18:08:19.727Z,73.40
2022-07-28T18:10:47.484Z,73.80
2022-07-28T18:13:14.650Z,74.30
2022-07-28T18:15:42.504Z,73.50
2022-07-28T18:18:09.470Z,73.40
2022-07-28T18:20:37.846Z,73.90
2022-07-28T18:23:06.298Z,73.80
2022-07-28T18:25:33.549Z,73.60
2022-07-28T18:28:00.612Z,74.60
2022-07-28T18:30:27.724Z,74.00
2022-07-28T18:32:54.835Z,74.60
2022-07-28T18:35:22.717Z,74.50
2022-07-28T18:37:50.043Z,74.70
2022-07-28T18:40:17.774Z,74.70
2022-07-28T18:42:46.266Z,75.00
2022-07-28T18:45:13.643Z,74.70
2022-07-28T18:47:46.379Z,74.90
2022-07-28T18:50:27.725Z,75.50
2022-07-28T18:52:57.823Z,75.40
2022-07-28T18:55:24.558Z,75.90
2022-07-28T18:57:51.254Z,76.00
2022-07-28T19:00:17.971Z,75.90
2022-07-28T19:02:44.728Z,76.20
2022-07-28T19:05:11.495Z,76.60
2022-07-28T19:07:38.192Z,76.80
2022-07-28T19:10:05.480Z,76.40
2022-07-28T19:12:34.149Z,76.40
2022-07-28T19:15:01.531Z,76.70
2022-07-28T19:17:28.237Z,77.40
2022-07-28T19:19:59.275Z,77.10
2022-07-28T19:22:25.979Z,77.50
2022-07-28T19:24:52.744Z,78.10
2022-07-28T19:27:20.182Z,78.90
2022-07-28T19:29:47.115Z,79.10
2022-07-28T19:32:13.863Z,79.40
2022-07-28T19:34:42.929Z,80.10
2022-07-28T19:37:10.131Z,80.40
2022-07-28T19:39:45.787Z,80.70
2022-07-28T19:42:13.136Z,80.00
2022-07-28T19:44:41.281Z,80.70
2022-07-28T19:47:08.679Z,81.30
2022-07-28T19:49:35.489Z,81.60
2022-07-28T19:52:02.173Z,81.90
2022-07-28T19:54:29.017Z,82.00
2022-07-28T19:56:55.724Z,82.20
2022-07-28T19:59:22.986Z,82.00
2022-07-28T20:01:50.770Z,83.20
2022-07-28T20:04:18.079Z,83.00
2022-07-28T20:06:44.887Z,83.50
2022-07-28T20:09:12.695Z,82.80
2022-07-28T20:11:40.733Z,83.10
2022-07-28T20:14:07.697Z,83.60
2022-07-28T20:16:34.514Z,83.70
2022-07-28T20:19:01.343Z,83.70
2022-07-28T20:21:28.144Z,83.80
2022-07-28T20:23:57.142Z,84.60
2022-07-28T20:26:26.097Z,84.70
2022-07-28T20:28:54.056Z,85.20
2022-07-28T20:31:20.914Z,85.60
2022-07-28T20:33:47.682Z,85.80
2022-07-28T20:36:14.497Z,84.90
2022-07-28T20:38:41.167Z,86.00
2022-07-28T20:41:08.073Z,85.40
2022-07-28T20:43:36.179Z,85.40
2022-07-28T20:46:05.201Z,85.90
2022-07-28T20:48:32.101Z,86.40
2022-07-28T20:50:58.772Z,86.00
2022-07-28T20:53:25.390Z,86.70
2022-07-28T20:55:52.016Z,87.20
2022-07-28T20:58:18.714Z,87.20
2022-07-28T21:00:45.466Z,87.30
2022-07-28T21:03:12.285Z,87.40
2022-07-28T21:05:38.976Z,87.60
2022-07-28T21:08:09.532Z,87.60
2022-07-28T21:10:43.355Z,87.70
2022-07-28T21:13:10.017Z,88.20
2022-07-28T21:15:36.711Z,88.50
2022-07-28T21:18:03.547Z,88.00
2022-07-28T21:20:30.275Z,87.80
2022-07-28T21:22:56.910Z,87.40
2022-07-28T21:25:23.597Z,88.60
2022-07-28T21:28:08.653Z,88.40
2022-07-28T21:30:35.319Z,88.70
2022-07-28T21:33:01.975Z,88.20
2022-07-28T21:35:29.452Z,88.40
2022-07-28T21:37:56.275Z,89.10
2022-07-28T21:40:23.152Z,88.30
2022-07-28T21:42:49.930Z,88.50
2022-07-28T21:45:16.746Z,89.00
2022-07-28T21:47:43.488Z,89.30
2022-07-28T21:50:10.597Z,89.10
2022-07-28T21:52:37.880Z,89.20
2022-07-28T21:55:07.050Z,88.70
2022-07-28T21:57:34.705Z,88.80
2022-07-28T22:00:01.875Z,89.00
2022-07-28T22:02:28.583Z,88.80
2022-07-28T22:04:56.037Z,89.30
2022-07-28T22:07:22.755Z,89.60
2022-07-28T22:09:49.373Z,89.10
2022-07-28T22:12:16.026Z,89.00
2022-07-28T22:14:42.731Z,89.60
2022-07-28T22:17:09.491Z,90.00
2022-07-28T22:19:37.151Z,89.80
2022-07-28T22:22:03.918Z,89.50
2022-07-28T22:24:30.592Z,90.20
2022-07-28T22:26:57.225Z,90.20
2022-07-28T22:29:24.109Z,90.60
2022-07-28T22:31:52.740Z,90.30
2022-07-28T22:34:23.299Z,90.40
2022-07-28T22:36:49.935Z,90.90
2022-07-28T22:39:16.571Z,90.40
2022-07-28T22:41:43.216Z,90.40
2022-07-28T22:44:13.901Z,90.20
2022-07-28T22:46:40.839Z,90.40
2022-07-28T22:49:07.549Z,90.50
2022-07-28T22:51:34.299Z,90.40
2022-07-28T22:54:00.974Z,90.60
2022-07-28T22:56:27.644Z,90.60
2022-07-28T22:59:01.726Z,91.00
2022-07-28T23:01:28.532Z,90.80
2022-07-28T23:03:55.245Z,90.80
2022-07-28T23:06:22.015Z,90.90
2022-07-28T23:08:48.755Z,90.80
2022-07-28T23:11:15.477Z,90.90
2022-07-28T23:13:42.189Z,90.90
2022-07-28T23:16:09.993Z,90.70
2022-07-28T23:18:40.608Z,91.20
2022-07-28T23:21:07.990Z,90.90
2022-07-28T23:23:35.030Z,91.00
2022-07-28T23:26:02.523Z,91.10
2022-07-28T23:28:29.225Z,91.00
2022-07-28T23:30:56.626Z,91.30
2022-07-28T23:33:55.917Z,91.30
2022-07-28T23:36:16.890Z,91.30
2022-07-28T23:38:53.855Z,91.40
2022-07-28T23:41:20.496Z,91.60
2022-07-28T23:43:47.111Z,91.70
2022-07-28T23:46:13.772Z,91.80
2022-07-28T23:48:40.536Z,91.90
2022-07-28T23:51:07.231Z,92.20
2022-07-28T23:53:37.444Z,91.80
2022-07-28T23:56:04.350Z,92.00
2022-07-28T23:58:31.000Z,91.80
